This is the latest recevied weather packets stored in our database for station/object DH0DM-13. If no packets are shown the sender has not sent any weather packets the latest 10 day(s).
| Time | Temp. | Humidity | Pressure | Rain* | Wind** | Luminosity | Snow |
|---|---|---|---|---|---|---|---|
| 1788034647 | 17.78° C | 68% | 987.6 hPa | 2.03 mm | 0 m/s | - | - |
| 1788034046 | 17.78° C | 69% | 987.4 hPa | 2.03 mm | 0 m/s | - | - |
| 1788033445 | 17.78° C | 69% | 987.6 hPa | 2.03 mm | 0.89 m/s, 84° | - | - |
| 1788032844 | 17.78° C | 68% | 987.6 hPa | 2.03 mm | 1.79 m/s, 70° | - | - |
| 1788032243 | 17.78° C | 68% | 987.4 hPa | 2.03 mm | 0 m/s | - | - |
| 1788031642 | 17.78° C | 67% | 987.5 hPa | 2.03 mm | 0 m/s | - | - |
| 1788031041 | 17.78° C | 69% | 987.4 hPa | 2.03 mm | 1.79 m/s, 72° | - | - |
| 1788030441 | 17.78° C | 68% | 987.5 hPa | 2.03 mm | 0 m/s | - | - |
| 1788029840 | 17.78° C | 68% | 987.5 hPa | 2.03 mm | 0 m/s | - | - |
| 1788029239 | 17.78° C | 69% | 987.5 hPa | 2.03 mm | 0 m/s | - | - |
| 1788028638 | 17.78° C | 69% | 987.4 hPa | 2.03 mm | 0 m/s | - | - |
| 1788028037 | 18.33° C | 67% | 987.4 hPa | 2.03 mm | 0 m/s | - | - |
| 1788027436 | 18.33° C | 68% | 987.5 hPa | 2.03 mm | 0 m/s | - | - |
| 1788026835 | 18.33° C | 69% | 987.2 hPa | 2.03 mm | 0 m/s | - | - |
| 1788026234 | 18.89° C | 65% | 987.3 hPa | 2.03 mm | 0 m/s | - | - |
| 1788025633 | 20° C | 64% | 987.2 hPa | 2.03 mm | 0 m/s | - | - |
| 1788025033 | 20.56° C | 60% | 987.1 hPa | 2.03 mm | 0 m/s | - | - |
| 1788024431 | 21.67° C | 57% | 987.3 hPa | 2.03 mm | 0 m/s | - | - |
| 1788023831 | 22.78° C | 53% | 987.3 hPa | 2.03 mm | 0 m/s | - | - |
| 1788023230 | 23.89° C | 47% | 987.5 hPa | 2.03 mm | 0.89 m/s, 194° | - | - |
| 1788022629 | 23.89° C | 46% | 987.4 hPa | 2.03 mm | 0.89 m/s, 233° | - | - |
| 1788022028 | 24.44° C | 45% | 987.6 hPa | 2.03 mm | 1.34 m/s, 213° | - | - |
| 1788021427 | 24.44° C | 43% | 987.4 hPa | 2.03 mm | 2.68 m/s, 215° | - | - |
| 1788020826 | 25° C | 44% | 987.6 hPa | 2.03 mm | 1.79 m/s, 237° | - | - |
| 1788020225 | 24.44° C | 43% | 987.6 hPa | 2.03 mm | 4.47 m/s, 229° | - | - |
* Rain since midnight (hover to see other rain measurements)
** Current wind speed in m/s (hover to see current wind gust speed)